Ocean Springs, MS

1:17 AM CDT on April 23, 2017 (GMT -0500)
| | Change Station

Elev -9999 ft 0.00 °N, 0.00 °E | Updated 0 second ago

Thunderstorm
Thunderstorm
°F
Feels Like °F
N
Wind Variable Wind from North
Gusts mph

Today
High -- | Low -- °F
--% Chance of Precip.
Yesterday
High -- | Low -- °F
Precip. -- in
Pressure 29.87 in
Visibility 9.0 miles
Clouds Few 800 ft
Mostly Cloudy 2100 ft
Dew Point Not available.
Humidity Not available.
Rainfall --
Snow Depth Not available.
6:18 AM 7:28 PM
Waning Crescent, 14% visible
METAR KBIX 230558Z AUTO 08005KT 9SM R21/5500FT -TSRA FEW008 BKN021 19/18 A2986 RMK AO2 TSB20 CIG 015V021 BKN V OVC SLP114 P0053 60057 T01940183 10254 20194 402800194 58005
Pressure 29.87 in
Visibility 9.0 miles
Clouds Few 800 ft
Mostly Cloudy 2100 ft
Dew Point Not available.
Humidity Not available.
Rainfall --
Snow Depth Not available.
6:18 AM 7:28 PM
Waning Crescent, 14% visible
METAR KBIX 230558Z AUTO 08005KT 9SM R21/5500FT -TSRA FEW008 BKN021 19/18 A2986 RMK AO2 TSB20 CIG 015V021 BKN V OVC SLP114 P0053 60057 T01940183 10254 20194 402800194 58005

Get Severe Weather Alerts

Thanks for signing up!

Be on the lookout for a verification email in your inbox.

You'll start receiving the daily forecast at 8 AM.

×

10-Day Weather Forecast

Almanac

Astronomy

Apr. 23, 2017 Rise Set
Actual Time
Civil Twilight
Nautical Twilight
Astronomical Twilight
Moon
Length of Visible Light
Length of Day
Tomorrow will be .
, % of the Moon is Illuminated

Today's Extremes

State Highs State Lows

Community

WunderPhotos

WunderBlog® & News

Nearby

Air Quality

  Air Quality AQ Index Pollutant
Not available.

Snow Depth

Station Depth Elevation

Earthquake Activity

City Distance Mag. Time & Date
Minimum magnitude displayed is 2.5.

Coastal Water Temperatures

Place Temperature

Stations

Nearby Weather Stations

Station Location Temp. Windchill Dew Point Humidity Wind Precip. Elev Updated Type
                   

Watches & Warnings

There are currently no watches in effect.